sensor_id;sensor_type;location;lat;lon;timestamp;P1;durP1;ratioP1;P2;durP2;ratioP2
13951;SDS011;39535;52.192;9.886;2023-05-25T00:02:00;17.73;;;13.77;;
13951;SDS011;39535;52.192;9.886;2023-05-25T00:04:28;22.43;;;15.47;;
13951;SDS011;39535;52.192;9.886;2023-05-25T00:06:58;22.03;;;14.30;;
13951;SDS011;39535;52.192;9.886;2023-05-25T00:09:24;16.93;;;13.57;;
13951;SDS011;39535;52.192;9.886;2023-05-25T00:11:51;16.53;;;14.60;;
13951;SDS011;39535;52.192;9.886;2023-05-25T00:14:19;17.13;;;14.77;;
13951;SDS011;39535;52.192;9.886;2023-05-25T00:16:45;21.97;;;15.23;;
13951;SDS011;39535;52.192;9.886;2023-05-25T00:19:13;14.17;;;12.67;;
13951;SDS011;39535;52.192;9.886;2023-05-25T00:21:42;16.23;;;14.50;;
13951;SDS011;39535;52.192;9.886;2023-05-25T00:24:12;15.70;;;14.07;;
13951;SDS011;39535;52.192;9.886;2023-05-25T00:26:38;15.40;;;13.83;;
13951;SDS011;39535;52.192;9.886;2023-05-25T00:29:05;14.73;;;13.43;;
13951;SDS011;39535;52.192;9.886;2023-05-25T00:31:33;21.90;;;14.67;;
13951;SDS011;39535;52.192;9.886;2023-05-25T00:34:00;16.93;;;14.40;;
13951;SDS011;39535;52.192;9.886;2023-05-25T00:36:26;25.80;;;16.37;;
13951;SDS011;39535;52.192;9.886;2023-05-25T00:38:53;19.37;;;14.97;;
13951;SDS011;39535;52.192;9.886;2023-05-25T00:41:19;16.70;;;13.33;;
13951;SDS011;39535;52.192;9.886;2023-05-25T00:43:46;16.33;;;14.00;;
13951;SDS011;39535;52.192;9.886;2023-05-25T00:46:13;16.97;;;14.63;;
13951;SDS011;39535;52.192;9.886;2023-05-25T00:48:42;26.33;;;14.50;;
13951;SDS011;39535;52.192;9.886;2023-05-25T00:51:08;14.50;;;13.00;;
13951;SDS011;39535;52.192;9.886;2023-05-25T00:53:35;16.43;;;14.30;;
13951;SDS011;39535;52.192;9.886;2023-05-25T00:56:04;18.60;;;14.30;;
13951;SDS011;39535;52.192;9.886;2023-05-25T00:58:33;24.13;;;14.40;;
13951;SDS011;39535;52.192;9.886;2023-05-25T01:01:02;17.97;;;15.57;;
13951;SDS011;39535;52.192;9.886;2023-05-25T01:03:30;23.57;;;17.33;;
13951;SDS011;39535;52.192;9.886;2023-05-25T01:06:03;27.63;;;18.07;;
13951;SDS011;39535;52.192;9.886;2023-05-25T01:08:34;23.23;;;16.43;;
13951;SDS011;39535;52.192;9.886;2023-05-25T01:11:03;18.53;;;16.07;;
13951;SDS011;39535;52.192;9.886;2023-05-25T01:13:31;21.20;;;15.73;;
13951;SDS011;39535;52.192;9.886;2023-05-25T01:16:02;21.20;;;16.03;;
13951;SDS011;39535;52.192;9.886;2023-05-25T01:18:29;23.23;;;16.50;;
13951;SDS011;39535;52.192;9.886;2023-05-25T01:21:01;24.67;;;16.37;;
13951;SDS011;39535;52.192;9.886;2023-05-25T01:23:37;23.10;;;15.70;;
13951;SDS011;39535;52.192;9.886;2023-05-25T01:26:08;22.00;;;15.60;;
13951;SDS011;39535;52.192;9.886;2023-05-25T01:28:39;20.57;;;16.87;;
13951;SDS011;39535;52.192;9.886;2023-05-25T01:31:10;19.37;;;16.00;;
13951;SDS011;39535;52.192;9.886;2023-05-25T01:33:39;19.37;;;16.30;;
13951;SDS011;39535;52.192;9.886;2023-05-25T01:36:09;20.20;;;16.60;;
13951;SDS011;39535;52.192;9.886;2023-05-25T01:38:36;21.33;;;15.83;;
13951;SDS011;39535;52.192;9.886;2023-05-25T01:41:02;23.47;;;17.57;;
13951;SDS011;39535;52.192;9.886;2023-05-25T01:43:29;22.37;;;15.83;;
13951;SDS011;39535;52.192;9.886;2023-05-25T01:45:57;22.20;;;16.50;;
13951;SDS011;39535;52.192;9.886;2023-05-25T01:48:33;21.63;;;16.10;;
13951;SDS011;39535;52.192;9.886;2023-05-25T01:51:09;20.93;;;15.90;;
13951;SDS011;39535;52.192;9.886;2023-05-25T01:53:44;19.73;;;16.53;;
13951;SDS011;39535;52.192;9.886;2023-05-25T01:56:17;21.10;;;15.63;;
13951;SDS011;39535;52.192;9.886;2023-05-25T01:58:47;24.37;;;16.43;;
13951;SDS011;39535;52.192;9.886;2023-05-25T02:01:16;23.30;;;17.47;;
13951;SDS011;39535;52.192;9.886;2023-05-25T02:03:45;24.40;;;17.47;;
13951;SDS011;39535;52.192;9.886;2023-05-25T02:06:12;21.60;;;17.37;;
13951;SDS011;39535;52.192;9.886;2023-05-25T02:08:41;23.80;;;16.73;;
13951;SDS011;39535;52.192;9.886;2023-05-25T02:11:11;17.83;;;15.67;;
13951;SDS011;39535;52.192;9.886;2023-05-25T02:13:38;17.00;;;15.07;;
13951;SDS011;39535;52.192;9.886;2023-05-25T02:16:05;25.87;;;16.27;;
13951;SDS011;39535;52.192;9.886;2023-05-25T02:18:32;20.07;;;15.17;;
13951;SDS011;39535;52.192;9.886;2023-05-25T02:20:58;21.17;;;14.20;;
13951;SDS011;39535;52.192;9.886;2023-05-25T02:23:25;15.93;;;14.27;;
13951;SDS011;39535;52.192;9.886;2023-05-25T02:25:52;16.40;;;13.97;;
13951;SDS011;39535;52.192;9.886;2023-05-25T02:28:20;15.67;;;14.10;;
13951;SDS011;39535;52.192;9.886;2023-05-25T02:30:46;16.93;;;15.30;;
13951;SDS011;39535;52.192;9.886;2023-05-25T02:33:12;19.23;;;14.27;;
13951;SDS011;39535;52.192;9.886;2023-05-25T02:35:39;19.37;;;13.83;;
13951;SDS011;39535;52.192;9.886;2023-05-25T02:38:05;19.90;;;14.70;;
13951;SDS011;39535;52.192;9.886;2023-05-25T02:40:32;20.23;;;14.57;;
13951;SDS011;39535;52.192;9.886;2023-05-25T02:42:59;21.37;;;15.63;;
13951;SDS011;39535;52.192;9.886;2023-05-25T02:45:26;15.83;;;14.07;;
13951;SDS011;39535;52.192;9.886;2023-05-25T02:47:52;19.10;;;15.73;;
13951;SDS011;39535;52.192;9.886;2023-05-25T02:50:18;16.70;;;14.83;;
13951;SDS011;39535;52.192;9.886;2023-05-25T02:52:45;21.83;;;14.90;;
13951;SDS011;39535;52.192;9.886;2023-05-25T02:55:11;19.17;;;14.57;;
13951;SDS011;39535;52.192;9.886;2023-05-25T02:57:38;18.50;;;14.87;;
13951;SDS011;39535;52.192;9.886;2023-05-25T03:00:07;18.27;;;14.93;;
13951;SDS011;39535;52.192;9.886;2023-05-25T03:02:35;21.03;;;15.40;;
13951;SDS011;39535;52.192;9.886;2023-05-25T03:05:01;19.43;;;15.53;;
13951;SDS011;39535;52.192;9.886;2023-05-25T03:07:28;19.47;;;14.87;;
13951;SDS011;39535;52.192;9.886;2023-05-25T03:09:55;26.07;;;16.13;;
13951;SDS011;39535;52.192;9.886;2023-05-25T03:12:22;25.27;;;16.90;;
13951;SDS011;39535;52.192;9.886;2023-05-25T03:14:48;22.33;;;17.47;;
13951;SDS011;39535;52.192;9.886;2023-05-25T03:17:16;27.33;;;16.80;;
13951;SDS011;39535;52.192;9.886;2023-05-25T03:19:42;33.40;;;16.77;;
13951;SDS011;39535;52.192;9.886;2023-05-25T03:22:08;27.47;;;17.57;;
13951;SDS011;39535;52.192;9.886;2023-05-25T03:24:35;30.57;;;17.97;;
13951;SDS011;39535;52.192;9.886;2023-05-25T03:27:05;24.80;;;17.80;;
13951;SDS011;39535;52.192;9.886;2023-05-25T03:29:31;41.83;;;18.87;;
13951;SDS011;39535;52.192;9.886;2023-05-25T03:31:58;34.87;;;17.77;;
13951;SDS011;39535;52.192;9.886;2023-05-25T03:34:25;26.33;;;17.90;;
13951;SDS011;39535;52.192;9.886;2023-05-25T03:36:52;30.60;;;17.77;;
13951;SDS011;39535;52.192;9.886;2023-05-25T03:39:19;28.57;;;17.77;;
13951;SDS011;39535;52.192;9.886;2023-05-25T03:41:46;25.20;;;17.27;;
13951;SDS011;39535;52.192;9.886;2023-05-25T03:44:13;27.00;;;17.80;;
13951;SDS011;39535;52.192;9.886;2023-05-25T03:46:39;25.63;;;17.67;;
13951;SDS011;39535;52.192;9.886;2023-05-25T03:49:05;23.83;;;16.67;;
13951;SDS011;39535;52.192;9.886;2023-05-25T03:51:34;21.53;;;17.90;;
13951;SDS011;39535;52.192;9.886;2023-05-25T03:54:00;21.43;;;16.53;;
13951;SDS011;39535;52.192;9.886;2023-05-25T03:56:26;26.90;;;16.83;;
13951;SDS011;39535;52.192;9.886;2023-05-25T03:58:53;27.90;;;17.50;;
13951;SDS011;39535;52.192;9.886;2023-05-25T04:01:19;24.00;;;16.23;;
13951;SDS011;39535;52.192;9.886;2023-05-25T04:03:45;21.03;;;15.27;;
13951;SDS011;39535;52.192;9.886;2023-05-25T04:06:12;19.43;;;16.27;;
13951;SDS011;39535;52.192;9.886;2023-05-25T04:08:44;29.80;;;17.37;;
13951;SDS011;39535;52.192;9.886;2023-05-25T04:11:11;21.07;;;17.20;;
13951;SDS011;39535;52.192;9.886;2023-05-25T04:13:38;23.83;;;16.37;;
13951;SDS011;39535;52.192;9.886;2023-05-25T04:16:05;19.00;;;16.57;;
13951;SDS011;39535;52.192;9.886;2023-05-25T04:18:31;25.70;;;17.60;;
13951;SDS011;39535;52.192;9.886;2023-05-25T04:20:58;27.73;;;16.97;;
13951;SDS011;39535;52.192;9.886;2023-05-25T04:23:25;20.30;;;16.30;;
13951;SDS011;39535;52.192;9.886;2023-05-25T04:25:53;24.43;;;17.87;;
13951;SDS011;39535;52.192;9.886;2023-05-25T04:28:19;25.63;;;16.27;;
13951;SDS011;39535;52.192;9.886;2023-05-25T04:30:46;23.03;;;17.57;;
13951;SDS011;39535;52.192;9.886;2023-05-25T04:33:12;23.27;;;17.17;;
13951;SDS011;39535;52.192;9.886;2023-05-25T04:35:39;29.63;;;18.10;;
13951;SDS011;39535;52.192;9.886;2023-05-25T04:38:05;19.10;;;16.57;;
13951;SDS011;39535;52.192;9.886;2023-05-25T04:40:33;25.27;;;16.70;;
13951;SDS011;39535;52.192;9.886;2023-05-25T04:43:00;25.50;;;18.47;;
13951;SDS011;39535;52.192;9.886;2023-05-25T04:45:27;23.43;;;16.30;;
13951;SDS011;39535;52.192;9.886;2023-05-25T04:47:55;24.87;;;16.20;;
13951;SDS011;39535;52.192;9.886;2023-05-25T04:50:25;18.67;;;16.67;;
13951;SDS011;39535;52.192;9.886;2023-05-25T04:52:51;24.20;;;16.30;;
13951;SDS011;39535;52.192;9.886;2023-05-25T04:55:18;17.93;;;15.23;;
13951;SDS011;39535;52.192;9.886;2023-05-25T04:57:44;20.77;;;15.70;;
13951;SDS011;39535;52.192;9.886;2023-05-25T05:00:13;20.43;;;15.13;;
13951;SDS011;39535;52.192;9.886;2023-05-25T05:02:40;17.90;;;13.90;;
13951;SDS011;39535;52.192;9.886;2023-05-25T05:05:08;21.90;;;15.30;;
13951;SDS011;39535;52.192;9.886;2023-05-25T05:07:34;29.07;;;16.43;;
13951;SDS011;39535;52.192;9.886;2023-05-25T05:10:01;20.40;;;16.20;;
13951;SDS011;39535;52.192;9.886;2023-05-25T05:12:27;23.63;;;17.10;;
13951;SDS011;39535;52.192;9.886;2023-05-25T05:14:53;19.23;;;16.17;;
13951;SDS011;39535;52.192;9.886;2023-05-25T05:17:22;25.63;;;17.33;;
13951;SDS011;39535;52.192;9.886;2023-05-25T05:19:50;19.37;;;17.00;;
13951;SDS011;39535;52.192;9.886;2023-05-25T05:22:16;28.30;;;17.20;;
13951;SDS011;39535;52.192;9.886;2023-05-25T05:24:42;25.60;;;18.37;;
13951;SDS011;39535;52.192;9.886;2023-05-25T05:27:09;19.43;;;16.37;;
13951;SDS011;39535;52.192;9.886;2023-05-25T05:29:36;18.83;;;15.70;;
13951;SDS011;39535;52.192;9.886;2023-05-25T05:32:02;19.77;;;15.00;;
13951;SDS011;39535;52.192;9.886;2023-05-25T05:34:30;23.30;;;16.07;;
13951;SDS011;39535;52.192;9.886;2023-05-25T05:36:56;19.10;;;15.60;;
13951;SDS011;39535;52.192;9.886;2023-05-25T05:39:24;20.17;;;16.47;;
13951;SDS011;39535;52.192;9.886;2023-05-25T05:41:51;20.20;;;14.60;;
13951;SDS011;39535;52.192;9.886;2023-05-25T05:44:17;19.93;;;15.40;;
13951;SDS011;39535;52.192;9.886;2023-05-25T05:46:43;16.20;;;14.43;;
13951;SDS011;39535;52.192;9.886;2023-05-25T05:49:10;19.10;;;13.97;;
13951;SDS011;39535;52.192;9.886;2023-05-25T05:51:37;20.77;;;14.70;;
13951;SDS011;39535;52.192;9.886;2023-05-25T05:54:04;19.53;;;14.17;;
13951;SDS011;39535;52.192;9.886;2023-05-25T05:56:31;18.50;;;15.60;;
13951;SDS011;39535;52.192;9.886;2023-05-25T05:58:59;17.43;;;15.07;;
13951;SDS011;39535;52.192;9.886;2023-05-25T06:01:25;14.40;;;12.90;;
13951;SDS011;39535;52.192;9.886;2023-05-25T06:03:52;20.63;;;14.53;;
13951;SDS011;39535;52.192;9.886;2023-05-25T06:06:19;18.57;;;14.63;;
13951;SDS011;39535;52.192;9.886;2023-05-25T06:08:47;19.00;;;13.77;;
13951;SDS011;39535;52.192;9.886;2023-05-25T06:11:14;17.43;;;13.20;;
13951;SDS011;39535;52.192;9.886;2023-05-25T06:13:40;16.07;;;12.73;;
13951;SDS011;39535;52.192;9.886;2023-05-25T06:16:07;15.30;;;12.57;;
13951;SDS011;39535;52.192;9.886;2023-05-25T06:18:33;14.90;;;12.70;;
13951;SDS011;39535;52.192;9.886;2023-05-25T06:20:59;14.53;;;13.03;;
13951;SDS011;39535;52.192;9.886;2023-05-25T06:23:26;13.73;;;12.23;;
13951;SDS011;39535;52.192;9.886;2023-05-25T06:25:54;14.60;;;12.43;;
13951;SDS011;39535;52.192;9.886;2023-05-25T06:28:20;14.73;;;12.40;;
13951;SDS011;39535;52.192;9.886;2023-05-25T06:30:47;18.70;;;12.33;;
13951;SDS011;39535;52.192;9.886;2023-05-25T06:33:13;18.63;;;13.93;;
13951;SDS011;39535;52.192;9.886;2023-05-25T06:35:40;14.13;;;12.63;;
13951;SDS011;39535;52.192;9.886;2023-05-25T06:38:08;16.27;;;13.43;;
13951;SDS011;39535;52.192;9.886;2023-05-25T06:40:35;16.97;;;12.30;;
13951;SDS011;39535;52.192;9.886;2023-05-25T06:43:03;15.87;;;13.43;;
13951;SDS011;39535;52.192;9.886;2023-05-25T06:45:29;14.97;;;13.40;;
13951;SDS011;39535;52.192;9.886;2023-05-25T06:47:57;16.33;;;14.53;;
13951;SDS011;39535;52.192;9.886;2023-05-25T06:50:24;14.77;;;13.27;;
13951;SDS011;39535;52.192;9.886;2023-05-25T06:52:50;17.17;;;14.07;;
13951;SDS011;39535;52.192;9.886;2023-05-25T06:55:16;16.97;;;15.23;;
13951;SDS011;39535;52.192;9.886;2023-05-25T06:57:48;20.53;;;14.83;;
13951;SDS011;39535;52.192;9.886;2023-05-25T07:00:21;17.27;;;14.07;;
13951;SDS011;39535;52.192;9.886;2023-05-25T07:02:48;23.63;;;15.23;;
13951;SDS011;39535;52.192;9.886;2023-05-25T07:05:14;18.80;;;14.67;;
13951;SDS011;39535;52.192;9.886;2023-05-25T07:07:41;20.27;;;16.10;;
13951;SDS011;39535;52.192;9.886;2023-05-25T07:10:08;20.30;;;16.20;;
13951;SDS011;39535;52.192;9.886;2023-05-25T07:12:34;24.87;;;15.77;;
13951;SDS011;39535;52.192;9.886;2023-05-25T07:15:00;17.30;;;15.50;;
13951;SDS011;39535;52.192;9.886;2023-05-25T07:17:28;30.70;;;17.47;;
13951;SDS011;39535;52.192;9.886;2023-05-25T07:19:55;19.47;;;14.83;;
13951;SDS011;39535;52.192;9.886;2023-05-25T07:22:22;17.53;;;15.63;;
13951;SDS011;39535;52.192;9.886;2023-05-25T07:24:48;17.33;;;15.33;;
13951;SDS011;39535;52.192;9.886;2023-05-25T07:27:15;17.13;;;15.30;;
13951;SDS011;39535;52.192;9.886;2023-05-25T07:29:42;24.73;;;17.80;;
13951;SDS011;39535;52.192;9.886;2023-05-25T07:32:08;19.40;;;17.27;;
13951;SDS011;39535;52.192;9.886;2023-05-25T07:34:36;21.43;;;16.17;;
13951;SDS011;39535;52.192;9.886;2023-05-25T07:37:02;19.87;;;16.63;;
13951;SDS011;39535;52.192;9.886;2023-05-25T07:39:29;22.57;;;16.73;;
13951;SDS011;39535;52.192;9.886;2023-05-25T07:41:55;24.73;;;17.17;;
13951;SDS011;39535;52.192;9.886;2023-05-25T07:44:21;24.07;;;17.93;;
13951;SDS011;39535;52.192;9.886;2023-05-25T07:46:48;25.00;;;17.30;;
13951;SDS011;39535;52.192;9.886;2023-05-25T07:49:28;21.43;;;17.07;;
13951;SDS011;39535;52.192;9.886;2023-05-25T07:51:56;27.20;;;17.83;;
13951;SDS011;39535;52.192;9.886;2023-05-25T07:54:22;28.10;;;18.80;;
13951;SDS011;39535;52.192;9.886;2023-05-25T07:56:49;23.20;;;18.10;;
13951;SDS011;39535;52.192;9.886;2023-05-25T07:59:15;25.80;;;18.07;;
13951;SDS011;39535;52.192;9.886;2023-05-25T08:01:42;23.07;;;18.47;;
13951;SDS011;39535;52.192;9.886;2023-05-25T08:04:08;26.23;;;19.90;;
13951;SDS011;39535;52.192;9.886;2023-05-25T08:06:34;22.43;;;18.70;;
13951;SDS011;39535;52.192;9.886;2023-05-25T08:09:04;28.47;;;20.73;;
13951;SDS011;39535;52.192;9.886;2023-05-25T08:11:34;23.90;;;18.37;;
13951;SDS011;39535;52.192;9.886;2023-05-25T08:14:01;26.37;;;19.77;;
13951;SDS011;39535;52.192;9.886;2023-05-25T08:16:33;19.83;;;17.77;;
13951;SDS011;39535;52.192;9.886;2023-05-25T08:19:08;19.13;;;16.47;;
13951;SDS011;39535;52.192;9.886;2023-05-25T08:21:35;18.23;;;15.97;;
13951;SDS011;39535;52.192;9.886;2023-05-25T08:24:06;18.13;;;16.20;;
13951;SDS011;39535;52.192;9.886;2023-05-25T08:26:45;20.57;;;16.17;;
13951;SDS011;39535;52.192;9.886;2023-05-25T08:29:20;18.77;;;15.67;;
13951;SDS011;39535;52.192;9.886;2023-05-25T08:31:54;17.93;;;16.03;;
13951;SDS011;39535;52.192;9.886;2023-05-25T08:34:23;18.50;;;16.13;;
13951;SDS011;39535;52.192;9.886;2023-05-25T08:36:50;17.40;;;15.80;;
13951;SDS011;39535;52.192;9.886;2023-05-25T08:39:19;17.33;;;14.77;;
13951;SDS011;39535;52.192;9.886;2023-05-25T08:41:48;17.93;;;15.57;;
13951;SDS011;39535;52.192;9.886;2023-05-25T08:44:15;18.23;;;15.83;;
13951;SDS011;39535;52.192;9.886;2023-05-25T08:46:47;19.47;;;16.50;;
13951;SDS011;39535;52.192;9.886;2023-05-25T08:49:14;18.77;;;15.50;;
13951;SDS011;39535;52.192;9.886;2023-05-25T08:51:47;17.87;;;15.93;;
13951;SDS011;39535;52.192;9.886;2023-05-25T08:54:19;21.33;;;15.23;;
13951;SDS011;39535;52.192;9.886;2023-05-25T08:56:51;17.83;;;16.00;;
13951;SDS011;39535;52.192;9.886;2023-05-25T08:59:25;19.23;;;15.57;;
13951;SDS011;39535;52.192;9.886;2023-05-25T09:01:55;17.27;;;15.07;;
13951;SDS011;39535;52.192;9.886;2023-05-25T09:04:32;19.83;;;14.93;;
13951;SDS011;39535;52.192;9.886;2023-05-25T09:07:02;17.37;;;15.47;;
13951;SDS011;39535;52.192;9.886;2023-05-25T09:09:31;20.53;;;15.80;;
13951;SDS011;39535;52.192;9.886;2023-05-25T09:12:02;23.77;;;16.37;;
13951;SDS011;39535;52.192;9.886;2023-05-25T09:14:33;16.77;;;15.07;;
13951;SDS011;39535;52.192;9.886;2023-05-25T09:17:01;15.27;;;13.87;;
13951;SDS011;39535;52.192;9.886;2023-05-25T09:19:28;20.57;;;14.40;;
13951;SDS011;39535;52.192;9.886;2023-05-25T09:21:54;16.30;;;14.40;;
13951;SDS011;39535;52.192;9.886;2023-05-25T09:24:20;18.60;;;13.57;;
13951;SDS011;39535;52.192;9.886;2023-05-25T09:26:49;14.87;;;13.37;;
13951;SDS011;39535;52.192;9.886;2023-05-25T09:29:16;16.57;;;13.77;;
13951;SDS011;39535;52.192;9.886;2023-05-25T09:31:43;16.00;;;13.77;;
13951;SDS011;39535;52.192;9.886;2023-05-25T09:34:16;15.33;;;13.77;;
13951;SDS011;39535;52.192;9.886;2023-05-25T09:36:42;16.70;;;14.50;;
13951;SDS011;39535;52.192;9.886;2023-05-25T09:39:09;16.50;;;13.47;;
13951;SDS011;39535;52.192;9.886;2023-05-25T09:41:39;15.00;;;13.40;;
13951;SDS011;39535;52.192;9.886;2023-05-25T09:44:08;15.80;;;11.70;;
13951;SDS011;39535;52.192;9.886;2023-05-25T09:46:35;18.57;;;11.23;;
13951;SDS011;39535;52.192;9.886;2023-05-25T09:49:03;12.67;;;11.37;;
13951;SDS011;39535;52.192;9.886;2023-05-25T09:51:39;18.60;;;11.87;;
13951;SDS011;39535;52.192;9.886;2023-05-25T09:54:07;12.03;;;10.87;;
13951;SDS011;39535;52.192;9.886;2023-05-25T09:56:35;17.30;;;11.67;;
13951;SDS011;39535;52.192;9.886;2023-05-25T09:59:02;13.13;;;11.57;;
13951;SDS011;39535;52.192;9.886;2023-05-25T10:01:30;12.10;;;9.77;;
13951;SDS011;39535;52.192;9.886;2023-05-25T10:03:59;11.33;;;10.07;;
13951;SDS011;39535;52.192;9.886;2023-05-25T10:06:26;12.00;;;10.57;;
13951;SDS011;39535;52.192;9.886;2023-05-25T10:08:56;11.03;;;9.93;;
13951;SDS011;39535;52.192;9.886;2023-05-25T10:11:23;12.77;;;10.73;;
13951;SDS011;39535;52.192;9.886;2023-05-25T10:13:51;11.03;;;9.93;;
13951;SDS011;39535;52.192;9.886;2023-05-25T10:16:21;15.97;;;11.80;;
13951;SDS011;39535;52.192;9.886;2023-05-25T10:18:54;11.63;;;10.40;;
13951;SDS011;39535;52.192;9.886;2023-05-25T10:21:26;11.10;;;10.00;;
13951;SDS011;39535;52.192;9.886;2023-05-25T10:23:59;11.13;;;9.83;;
13951;SDS011;39535;52.192;9.886;2023-05-25T10:26:30;11.53;;;10.37;;
13951;SDS011;39535;52.192;9.886;2023-05-25T10:29:00;10.17;;;9.17;;
13951;SDS011;39535;52.192;9.886;2023-05-25T10:31:29;13.40;;;9.53;;
13951;SDS011;39535;52.192;9.886;2023-05-25T10:34:00;11.90;;;10.70;;
13951;SDS011;39535;52.192;9.886;2023-05-25T10:36:27;10.80;;;9.70;;
13951;SDS011;39535;52.192;9.886;2023-05-25T10:38:55;11.20;;;10.13;;
13951;SDS011;39535;52.192;9.886;2023-05-25T10:41:22;11.57;;;10.47;;
13951;SDS011;39535;52.192;9.886;2023-05-25T10:43:48;11.67;;;10.40;;
13951;SDS011;39535;52.192;9.886;2023-05-25T10:46:17;12.00;;;10.73;;
13951;SDS011;39535;52.192;9.886;2023-05-25T10:48:44;13.70;;;10.60;;
13951;SDS011;39535;52.192;9.886;2023-05-25T10:51:13;13.70;;;10.57;;
13951;SDS011;39535;52.192;9.886;2023-05-25T10:53:42;10.63;;;9.70;;
13951;SDS011;39535;52.192;9.886;2023-05-25T10:56:10;13.93;;;9.57;;
13951;SDS011;39535;52.192;9.886;2023-05-25T10:58:39;11.53;;;9.57;;
13951;SDS011;39535;52.192;9.886;2023-05-25T11:01:07;11.77;;;8.67;;
13951;SDS011;39535;52.192;9.886;2023-05-25T11:03:46;8.70;;;7.90;;
13951;SDS011;39535;52.192;9.886;2023-05-25T11:06:15;10.70;;;8.53;;
13951;SDS011;39535;52.192;9.886;2023-05-25T11:08:52;10.13;;;9.13;;
13951;SDS011;39535;52.192;9.886;2023-05-25T11:11:20;11.70;;;8.43;;
13951;SDS011;39535;52.192;9.886;2023-05-25T11:13:47;8.70;;;7.90;;
13951;SDS011;39535;52.192;9.886;2023-05-25T11:16:15;10.83;;;8.20;;
13951;SDS011;39535;52.192;9.886;2023-05-25T11:18:51;10.50;;;8.00;;
13951;SDS011;39535;52.192;9.886;2023-05-25T11:21:22;9.57;;;8.23;;
13951;SDS011;39535;52.192;9.886;2023-05-25T11:24:12;11.73;;;8.07;;
13951;SDS011;39535;52.192;9.886;2023-05-25T11:26:53;9.20;;;8.30;;
13951;SDS011;39535;52.192;9.886;2023-05-25T11:29:21;12.73;;;8.30;;
13951;SDS011;39535;52.192;9.886;2023-05-25T11:31:51;10.47;;;8.50;;
13951;SDS011;39535;52.192;9.886;2023-05-25T11:34:18;10.17;;;9.03;;
13951;SDS011;39535;52.192;9.886;2023-05-25T11:36:46;9.77;;;8.80;;
13951;SDS011;39535;52.192;9.886;2023-05-25T11:39:14;8.83;;;8.03;;
13951;SDS011;39535;52.192;9.886;2023-05-25T11:41:45;9.43;;;8.57;;
13951;SDS011;39535;52.192;9.886;2023-05-25T11:44:13;9.67;;;8.73;;
13951;SDS011;39535;52.192;9.886;2023-05-25T11:46:40;9.53;;;8.63;;
13951;SDS011;39535;52.192;9.886;2023-05-25T11:49:07;11.00;;;8.53;;
13951;SDS011;39535;52.192;9.886;2023-05-25T11:51:34;8.97;;;8.07;;
13951;SDS011;39535;52.192;9.886;2023-05-25T11:54:01;11.10;;;8.60;;
13951;SDS011;39535;52.192;9.886;2023-05-25T11:56:30;11.63;;;8.50;;
13951;SDS011;39535;52.192;9.886;2023-05-25T11:58:57;9.97;;;8.93;;
13951;SDS011;39535;52.192;9.886;2023-05-25T12:01:24;13.00;;;8.87;;
13951;SDS011;39535;52.192;9.886;2023-05-25T12:03:52;9.90;;;8.90;;
13951;SDS011;39535;52.192;9.886;2023-05-25T12:06:27;8.83;;;7.83;;
13951;SDS011;39535;52.192;9.886;2023-05-25T12:08:54;8.70;;;7.80;;
13951;SDS011;39535;52.192;9.886;2023-05-25T12:11:27;8.07;;;7.27;;
13951;SDS011;39535;52.192;9.886;2023-05-25T12:13:57;9.17;;;7.17;;
13951;SDS011;39535;52.192;9.886;2023-05-25T12:16:24;9.97;;;7.60;;
13951;SDS011;39535;52.192;9.886;2023-05-25T12:18:51;8.10;;;7.40;;
13951;SDS011;39535;52.192;9.886;2023-05-25T12:21:18;10.20;;;6.33;;
13951;SDS011;39535;52.192;9.886;2023-05-25T12:23:46;8.40;;;6.73;;
13951;SDS011;39535;52.192;9.886;2023-05-25T12:26:14;9.57;;;6.50;;
13951;SDS011;39535;52.192;9.886;2023-05-25T12:31:35;8.13;;;6.13;;
13951;SDS011;39535;52.192;9.886;2023-05-25T12:34:07;7.53;;;6.10;;
13951;SDS011;39535;52.192;9.886;2023-05-25T12:36:35;8.20;;;5.33;;
13951;SDS011;39535;52.192;9.886;2023-05-25T12:39:02;6.77;;;5.43;;
13951;SDS011;39535;52.192;9.886;2023-05-25T12:41:29;8.07;;;5.20;;
13951;SDS011;39535;52.192;9.886;2023-05-25T12:43:56;5.23;;;4.40;;
13951;SDS011;39535;52.192;9.886;2023-05-25T12:46:22;7.37;;;5.80;;
13951;SDS011;39535;52.192;9.886;2023-05-25T12:48:51;8.27;;;5.50;;
13951;SDS011;39535;52.192;9.886;2023-05-25T12:51:17;5.67;;;5.10;;
13951;SDS011;39535;52.192;9.886;2023-05-25T12:53:47;6.83;;;5.03;;
13951;SDS011;39535;52.192;9.886;2023-05-25T12:56:15;8.20;;;5.47;;
13951;SDS011;39535;52.192;9.886;2023-05-25T12:58:41;6.13;;;5.43;;
13951;SDS011;39535;52.192;9.886;2023-05-25T13:01:08;5.80;;;5.20;;
13951;SDS011;39535;52.192;9.886;2023-05-25T13:03:34;7.37;;;5.10;;
13951;SDS011;39535;52.192;9.886;2023-05-25T13:06:02;6.10;;;5.27;;
13951;SDS011;39535;52.192;9.886;2023-05-25T13:08:29;9.53;;;5.53;;
13951;SDS011;39535;52.192;9.886;2023-05-25T13:10:55;6.67;;;5.33;;
13951;SDS011;39535;52.192;9.886;2023-05-25T13:13:22;6.03;;;5.03;;
13951;SDS011;39535;52.192;9.886;2023-05-25T13:15:48;5.77;;;5.27;;
13951;SDS011;39535;52.192;9.886;2023-05-25T13:18:14;6.00;;;5.47;;
13951;SDS011;39535;52.192;9.886;2023-05-25T13:20:41;10.43;;;4.77;;
13951;SDS011;39535;52.192;9.886;2023-05-25T13:23:08;7.13;;;4.83;;
13951;SDS011;39535;52.192;9.886;2023-05-25T13:25:35;6.03;;;4.90;;
13951;SDS011;39535;52.192;9.886;2023-05-25T13:28:01;5.27;;;4.57;;
13951;SDS011;39535;52.192;9.886;2023-05-25T13:30:30;8.33;;;4.87;;
13951;SDS011;39535;52.192;9.886;2023-05-25T13:32:56;5.27;;;4.87;;
13951;SDS011;39535;52.192;9.886;2023-05-25T13:35:23;5.17;;;4.67;;
13951;SDS011;39535;52.192;9.886;2023-05-25T13:38:01;8.03;;;5.57;;
13951;SDS011;39535;52.192;9.886;2023-05-25T13:40:29;5.57;;;4.00;;
13951;SDS011;39535;52.192;9.886;2023-05-25T13:42:55;5.47;;;4.13;;
13951;SDS011;39535;52.192;9.886;2023-05-25T13:45:22;5.53;;;5.00;;
13951;SDS011;39535;52.192;9.886;2023-05-25T13:47:48;5.13;;;4.57;;
13951;SDS011;39535;52.192;9.886;2023-05-25T13:50:15;4.50;;;4.10;;
13951;SDS011;39535;52.192;9.886;2023-05-25T13:52:41;6.23;;;4.63;;
13951;SDS011;39535;52.192;9.886;2023-05-25T13:55:08;5.20;;;4.73;;
13951;SDS011;39535;52.192;9.886;2023-05-25T13:57:36;5.53;;;4.50;;
13951;SDS011;39535;52.192;9.886;2023-05-25T14:00:02;4.93;;;4.13;;
13951;SDS011;39535;52.192;9.886;2023-05-25T14:02:29;4.93;;;4.07;;
13951;SDS011;39535;52.192;9.886;2023-05-25T14:04:57;6.20;;;4.40;;
13951;SDS011;39535;52.192;9.886;2023-05-25T14:07:24;5.40;;;4.33;;
13951;SDS011;39535;52.192;9.886;2023-05-25T14:09:50;6.93;;;4.57;;
13951;SDS011;39535;52.192;9.886;2023-05-25T14:12:17;5.70;;;4.33;;
13951;SDS011;39535;52.192;9.886;2023-05-25T14:14:45;7.20;;;4.40;;
13951;SDS011;39535;52.192;9.886;2023-05-25T14:17:11;5.40;;;4.07;;
13951;SDS011;39535;52.192;9.886;2023-05-25T14:19:37;4.63;;;4.00;;
13951;SDS011;39535;52.192;9.886;2023-05-25T14:22:04;4.27;;;3.97;;
13951;SDS011;39535;52.192;9.886;2023-05-25T14:24:30;5.47;;;4.00;;
13951;SDS011;39535;52.192;9.886;2023-05-25T14:26:57;5.00;;;3.90;;
13951;SDS011;39535;52.192;9.886;2023-05-25T14:29:23;3.93;;;3.57;;
13951;SDS011;39535;52.192;9.886;2023-05-25T14:31:51;4.07;;;3.40;;
13951;SDS011;39535;52.192;9.886;2023-05-25T14:34:18;5.10;;;4.10;;
13951;SDS011;39535;52.192;9.886;2023-05-25T14:36:44;4.17;;;3.53;;